DLH441 EDDF-KJFK
Flight info
| Callsign | DLH441 |
|---|---|
| Flight time | 2h 47m |
| Altitude | 36000 |
| Route | OBOKA3D/07C OBOKA Z28 DIBIR DCT BUDIP DCT RAVLO Y70 OTBED L60 PENIL M144 BAGSO DCT ADBUS DCT DOGAL/M084F380 NATD ALLRY/N0490F380 N476B TOPPS DCT ENE PARCH4 |
| Aircraft | A35K/H-SDE2E3GHIJ3J4J5LM1ORWXY/LB1D1 |
Departure
| Time | 2026-05-09 13:20 |
|---|---|
| Airport | Frankfurt Main Airport (EDDF) |
Arrival
| Time | 2026-05-09 16:08 |
|---|---|
| Airport | John F. Kennedy International Airport (KJFK) |
| Time | Latitude | Longitude | Altitude | Speed | Heading |
|---|---|---|---|---|---|
| 2026-05-09 12:42 | 50.04583 | 8.56610 | 370 ft | 0 kts | 115° |
| 2026-05-09 13:10 | 50.04593 | 8.56579 | 368 ft | 4 kts | 116° |
| 2026-05-09 13:10 | 50.04605 | 8.56542 | 368 ft | 4 kts | 121° |
| 2026-05-09 13:10 | 50.04621 | 8.56509 | 363 ft | 4 kts | 147° |
| 2026-05-09 13:10 | 50.04638 | 8.56502 | 365 ft | 2 kts | 204° |
| 2026-05-09 13:11 | 50.04623 | 8.56491 | 366 ft | 4 kts | 204° |
| 2026-05-09 13:11 | 50.04598 | 8.56473 | 366 ft | 4 kts | 205° |
| 2026-05-09 13:11 | 50.04594 | 8.56470 | 367 ft | 0 kts | 205° |
| 2026-05-09 13:13 | 50.04593 | 8.56470 | 368 ft | 2 kts | 205° |
| 2026-05-09 13:14 | 50.04522 | 8.56394 | 366 ft | 19 kts | 235° |
| 2026-05-09 13:14 | 50.04473 | 8.56203 | 365 ft | 18 kts | 250° |
| 2026-05-09 13:16 | 50.04145 | 8.56282 | 365 ft | 13 kts | 194° |
| 2026-05-09 13:16 | 50.04098 | 8.56157 | 362 ft | 15 kts | 249° |
| 2026-05-09 13:16 | 50.04059 | 8.55993 | 364 ft | 17 kts | 250° |
| 2026-05-09 13:16 | 50.04014 | 8.55803 | 365 ft | 20 kts | 249° |
| 2026-05-09 13:17 | 50.03961 | 8.55589 | 364 ft | 22 kts | 250° |
| 2026-05-09 13:17 | 50.03913 | 8.55384 | 360 ft | 20 kts | 249° |
| 2026-05-09 13:17 | 50.03862 | 8.55170 | 364 ft | 22 kts | 250° |
| 2026-05-09 13:17 | 50.03807 | 8.54937 | 363 ft | 24 kts | 249° |
| 2026-05-09 13:18 | 50.03746 | 8.54684 | 360 ft | 26 kts | 249° |
| 2026-05-09 13:18 | 50.03693 | 8.54464 | 354 ft | 18 kts | 249° |
| 2026-05-09 13:18 | 50.03637 | 8.54315 | 356 ft | 15 kts | 197° |
| 2026-05-09 13:18 | 50.03530 | 8.54356 | 354 ft | 16 kts | 159° |
| 2026-05-09 13:19 | 50.03508 | 8.54474 | 358 ft | 0 kts | 70° |
| 2026-05-09 13:19 | 50.03568 | 8.54736 | 358 ft | 60 kts | 70° |
| 2026-05-09 13:19 | 50.03799 | 8.55705 | 363 ft | 135 kts | 70° |
| 2026-05-09 13:20 | 50.04198 | 8.57411 | 649 ft | 185 kts | 67° |
| 2026-05-09 13:20 | 50.04698 | 8.59340 | 1261 ft | 199 kts | 67° |
| 2026-05-09 13:20 | 50.05235 | 8.61417 | 1838 ft | 214 kts | 69° |
| 2026-05-09 13:20 | 50.05730 | 8.63670 | 2361 ft | 223 kts | 72° |
| 2026-05-09 13:21 | 50.06206 | 8.65975 | 3028 ft | 225 kts | 72° |
| 2026-05-09 13:21 | 50.06700 | 8.68298 | 3729 ft | 227 kts | 71° |
| 2026-05-09 13:21 | 50.07391 | 8.70526 | 4314 ft | 233 kts | 52° |
| 2026-05-09 13:21 | 50.08682 | 8.72127 | 4721 ft | 248 kts | 27° |
| 2026-05-09 13:22 | 50.10319 | 8.73265 | 5085 ft | 265 kts | 22° |
| 2026-05-09 13:22 | 50.12050 | 8.74365 | 5711 ft | 271 kts | 22° |
| 2026-05-09 13:22 | 50.13808 | 8.75501 | 6429 ft | 275 kts | 22° |
| 2026-05-09 13:23 | 50.21026 | 8.73659 | 9165 ft | 279 kts | 314° |
| 2026-05-09 13:23 | 50.22254 | 8.71325 | 9932 ft | 279 kts | 302° |
| 2026-05-09 13:24 | 50.23331 | 8.68777 | 10474 ft | 287 kts | 301° |
| 2026-05-09 13:24 | 50.24423 | 8.66057 | 10760 ft | 303 kts | 300° |
| 2026-05-09 13:24 | 50.25555 | 8.63176 | 11059 ft | 319 kts | 300° |
| 2026-05-09 13:24 | 50.26738 | 8.60142 | 11361 ft | 334 kts | 300° |
| 2026-05-09 13:25 | 50.27966 | 8.56982 | 11705 ft | 345 kts | 300° |
| 2026-05-09 13:25 | 50.29220 | 8.53746 | 12246 ft | 351 kts | 300° |
| 2026-05-09 13:25 | 50.31777 | 8.47127 | 13425 ft | 358 kts | 300° |
| 2026-05-09 13:26 | 50.33068 | 8.43778 | 13996 ft | 361 kts | 300° |
| 2026-05-09 13:26 | 50.34357 | 8.40424 | 14490 ft | 365 kts | 300° |
| 2026-05-09 13:26 | 50.35674 | 8.36998 | 14974 ft | 370 kts | 300° |
| 2026-05-09 13:26 | 50.37005 | 8.33524 | 15502 ft | 373 kts | 300° |
| 2026-05-09 13:27 | 50.38353 | 8.30009 | 16021 ft | 377 kts | 300° |
| 2026-05-09 13:27 | 50.39709 | 8.26464 | 16547 ft | 380 kts | 300° |
| 2026-05-09 13:27 | 50.41058 | 8.22929 | 17053 ft | 384 kts | 300° |
| 2026-05-09 13:27 | 50.42434 | 8.19322 | 17567 ft | 387 kts | 300° |
| 2026-05-09 13:28 | 50.43823 | 8.15674 | 18062 ft | 391 kts | 300° |
| 2026-05-09 13:28 | 50.45225 | 8.11990 | 18532 ft | 395 kts | 300° |
| 2026-05-09 13:28 | 50.46635 | 8.08276 | 18986 ft | 397 kts | 300° |
| 2026-05-09 13:28 | 50.48056 | 8.04531 | 19459 ft | 400 kts | 300° |
| 2026-05-09 13:29 | 50.49484 | 8.00761 | 19906 ft | 402 kts | 300° |
| 2026-05-09 13:29 | 50.50915 | 7.96977 | 20363 ft | 404 kts | 300° |
| 2026-05-09 13:29 | 50.52355 | 7.93161 | 20813 ft | 407 kts | 300° |
| 2026-05-09 13:29 | 50.53806 | 7.89312 | 21205 ft | 411 kts | 300° |
| 2026-05-09 13:30 | 50.55271 | 7.85420 | 21550 ft | 415 kts | 300° |
| 2026-05-09 13:30 | 50.56745 | 7.81498 | 21985 ft | 417 kts | 300° |
| 2026-05-09 13:30 | 50.58208 | 7.77601 | 22409 ft | 420 kts | 300° |
| 2026-05-09 13:30 | 50.59694 | 7.73636 | 22851 ft | 422 kts | 300° |
| 2026-05-09 13:31 | 50.61190 | 7.69639 | 23275 ft | 424 kts | 299° |
| 2026-05-09 13:31 | 50.62688 | 7.65627 | 23701 ft | 427 kts | 300° |
| 2026-05-09 13:31 | 50.64197 | 7.61583 | 24046 ft | 429 kts | 300° |
| 2026-05-09 13:31 | 50.65709 | 7.57524 | 24415 ft | 431 kts | 300° |
| 2026-05-09 13:32 | 50.67230 | 7.53432 | 24769 ft | 432 kts | 300° |
| 2026-05-09 13:32 | 50.70287 | 7.45189 | 25463 ft | 437 kts | 299° |
| 2026-05-09 13:32 | 50.71809 | 7.41076 | 25780 ft | 440 kts | 299° |
| 2026-05-09 13:33 | 50.73358 | 7.36886 | 26168 ft | 441 kts | 299° |
| 2026-05-09 13:33 | 50.74977 | 7.32750 | 26540 ft | 443 kts | 302° |
| 2026-05-09 13:33 | 50.76712 | 7.28692 | 26920 ft | 446 kts | 303° |
| 2026-05-09 13:33 | 50.78495 | 7.24677 | 27292 ft | 448 kts | 304° |
| 2026-05-09 13:34 | 50.80286 | 7.20707 | 27647 ft | 450 kts | 304° |
| 2026-05-09 13:34 | 50.82108 | 7.16679 | 28046 ft | 452 kts | 304° |
| 2026-05-09 13:34 | 50.83945 | 7.12602 | 28432 ft | 454 kts | 304° |
| 2026-05-09 13:34 | 50.85779 | 7.08507 | 28814 ft | 456 kts | 304° |
| 2026-05-09 13:35 | 50.87616 | 7.04384 | 29175 ft | 459 kts | 303° |
| 2026-05-09 13:35 | 50.89441 | 7.00273 | 29475 ft | 463 kts | 303° |
| 2026-05-09 13:35 | 50.91296 | 6.96088 | 29872 ft | 465 kts | 303° |
| 2026-05-09 13:35 | 50.93155 | 6.91883 | 30239 ft | 467 kts | 303° |
| 2026-05-09 13:36 | 50.95021 | 6.87651 | 30565 ft | 470 kts | 303° |
| 2026-05-09 13:36 | 50.96900 | 6.83384 | 30878 ft | 472 kts | 303° |
| 2026-05-09 13:36 | 50.98783 | 6.79100 | 31197 ft | 474 kts | 303° |
| 2026-05-09 13:36 | 51.00675 | 6.74790 | 31496 ft | 476 kts | 303° |
| 2026-05-09 13:37 | 51.02576 | 6.70455 | 31792 ft | 478 kts | 303° |
| 2026-05-09 13:37 | 51.04458 | 6.66156 | 32079 ft | 480 kts | 303° |
| 2026-05-09 13:37 | 51.06369 | 6.61786 | 32344 ft | 483 kts | 303° |
| 2026-05-09 13:37 | 51.08294 | 6.57375 | 32515 ft | 488 kts | 303° |
| 2026-05-09 13:38 | 51.10230 | 6.52939 | 32878 ft | 488 kts | 303° |
| 2026-05-09 13:38 | 51.12158 | 6.48511 | 33324 ft | 486 kts | 302° |
| 2026-05-09 13:38 | 51.14076 | 6.44089 | 33742 ft | 484 kts | 302° |
| 2026-05-09 13:38 | 51.15992 | 6.39663 | 34134 ft | 484 kts | 302° |
| 2026-05-09 13:39 | 51.17898 | 6.35250 | 34531 ft | 481 kts | 302° |
| 2026-05-09 13:39 | 51.19796 | 6.30851 | 34930 ft | 479 kts | 302° |
| 2026-05-09 13:39 | 51.21657 | 6.26530 | 35283 ft | 478 kts | 302° |
| 2026-05-09 13:39 | 51.23540 | 6.22152 | 35602 ft | 477 kts | 302° |
| 2026-05-09 13:40 | 51.25422 | 6.17773 | 35929 ft | 477 kts | 302° |
| 2026-05-09 13:40 | 51.27277 | 6.13446 | 36080 ft | 480 kts | 302° |
| 2026-05-09 13:40 | 51.33059 | 5.99525 | 36096 ft | 484 kts | 300° |
| 2026-05-09 13:41 | 51.50412 | 5.66352 | 36100 ft | 489 kts | 311° |
| 2026-05-09 13:41 | 51.69028 | 5.34684 | 36108 ft | 489 kts | 310° |
| 2026-05-09 13:42 | 51.87747 | 5.02372 | 36103 ft | 492 kts | 310° |
| 2026-05-09 13:42 | 52.06385 | 4.69776 | 36117 ft | 494 kts | 309° |
| 2026-05-09 13:43 | 52.25029 | 4.36742 | 36112 ft | 493 kts | 309° |
| 2026-05-09 13:43 | 52.43496 | 4.03575 | 36131 ft | 492 kts | 309° |
| 2026-05-09 13:44 | 52.61897 | 3.70080 | 36144 ft | 493 kts | 308° |
| 2026-05-09 13:44 | 52.80199 | 3.36310 | 36151 ft | 495 kts | 307° |
| 2026-05-09 13:45 | 52.93916 | 2.98746 | 36151 ft | 477 kts | 278° |
| 2026-05-09 13:45 | 52.99435 | 2.55601 | 36151 ft | 475 kts | 277° |
| 2026-05-09 13:46 | 53.04857 | 2.12541 | 36152 ft | 476 kts | 277° |
| 2026-05-09 13:46 | 53.10143 | 1.69157 | 36158 ft | 478 kts | 276° |
| 2026-05-09 13:47 | 53.15281 | 1.25602 | 36158 ft | 479 kts | 276° |
| 2026-05-09 13:47 | 53.20234 | 0.82153 | 36164 ft | 481 kts | 275° |
| 2026-05-09 13:48 | 53.25079 | 0.38249 | 36165 ft | 482 kts | 275° |
| 2026-05-09 13:48 | 53.29741 | -0.05668 | 36150 ft | 479 kts | 274° |
| 2026-05-09 13:49 | 53.34249 | -0.49770 | 36130 ft | 480 kts | 274° |
| 2026-05-09 13:49 | 53.38597 | -0.94006 | 36151 ft | 480 kts | 274° |
| 2026-05-09 13:50 | 53.42753 | -1.37855 | 36161 ft | 479 kts | 274° |
| 2026-05-09 13:50 | 53.46747 | -1.82091 | 36169 ft | 478 kts | 274° |
| 2026-05-09 13:51 | 53.50583 | -2.26272 | 36167 ft | 477 kts | 274° |
| 2026-05-09 13:51 | 53.54233 | -2.70419 | 36173 ft | 475 kts | 274° |
| 2026-05-09 13:52 | 53.57714 | -3.14462 | 36184 ft | 474 kts | 274° |
| 2026-05-09 13:52 | 53.61024 | -3.58441 | 36195 ft | 473 kts | 274° |
| 2026-05-09 13:53 | 53.63086 | -4.02271 | 36203 ft | 471 kts | 270° |
| 2026-05-09 13:53 | 53.64741 | -4.46204 | 36211 ft | 469 kts | 271° |
| 2026-05-09 13:54 | 53.65983 | -4.82654 | 36233 ft | 465 kts | 271° |
| 2026-05-09 13:54 | 53.67546 | -5.33361 | 36243 ft | 465 kts | 271° |
| 2026-05-09 13:55 | 53.69309 | -5.69551 | 36245 ft | 466 kts | 276° |
| 2026-05-09 13:55 | 53.72483 | -6.12982 | 36249 ft | 466 kts | 275° |
| 2026-05-09 13:56 | 53.75382 | -6.56617 | 36252 ft | 467 kts | 275° |
| 2026-05-09 13:56 | 53.78129 | -7.00371 | 36260 ft | 468 kts | 275° |
| 2026-05-09 13:57 | 53.80710 | -7.44098 | 36262 ft | 467 kts | 274° |
| 2026-05-09 13:57 | 53.83136 | -7.87916 | 36271 ft | 467 kts | 274° |
| 2026-05-09 13:58 | 53.85388 | -8.31527 | 36275 ft | 466 kts | 274° |
| 2026-05-09 13:58 | 53.87496 | -8.75476 | 36291 ft | 468 kts | 274° |
| 2026-05-09 13:59 | 53.89442 | -9.19437 | 36317 ft | 469 kts | 274° |
| 2026-05-09 13:59 | 53.91236 | -9.63736 | 36341 ft | 471 kts | 275° |
| 2026-05-09 14:00 | 53.92611 | -10.00678 | 36360 ft | 472 kts | 276° |
| 2026-05-09 14:00 | 53.94353 | -10.52737 | 36380 ft | 476 kts | 276° |
| 2026-05-09 14:01 | 53.95671 | -10.97739 | 36387 ft | 478 kts | 275° |
| 2026-05-09 14:01 | 53.96830 | -11.42905 | 36398 ft | 478 kts | 274° |
| 2026-05-09 14:02 | 53.97814 | -11.87856 | 36414 ft | 479 kts | 275° |
| 2026-05-09 14:02 | 53.98633 | -12.33200 | 36417 ft | 480 kts | 274° |
| 2026-05-09 14:03 | 53.99282 | -12.78426 | 36427 ft | 481 kts | 274° |
| 2026-05-09 14:03 | 53.99762 | -13.23962 | 36438 ft | 482 kts | 273° |
| 2026-05-09 14:04 | 54.00074 | -13.69820 | 36450 ft | 486 kts | 274° |
| 2026-05-09 14:04 | 54.00209 | -14.16006 | 36451 ft | 490 kts | 274° |
| 2026-05-09 14:05 | 54.00169 | -14.62198 | 36464 ft | 492 kts | 275° |
| 2026-05-09 14:05 | 54.00062 | -15.08825 | 36473 ft | 494 kts | 277° |
| 2026-05-09 14:06 | 54.01036 | -15.55731 | 37428 ft | 495 kts | 277° |
| 2026-05-09 14:06 | 54.01385 | -15.79031 | 38497 ft | 496 kts | 277° |
| 2026-05-09 14:06 | 54.01695 | -16.02504 | 38485 ft | 497 kts | 277° |
| 2026-05-09 14:07 | 54.02180 | -16.49595 | 38506 ft | 497 kts | 276° |
| 2026-05-09 14:07 | 54.02479 | -16.96340 | 38513 ft | 497 kts | 276° |
| 2026-05-09 14:08 | 54.02596 | -17.43349 | 38522 ft | 496 kts | 276° |
| 2026-05-09 14:08 | 54.02530 | -17.90259 | 38530 ft | 497 kts | 276° |
| 2026-05-09 14:09 | 54.02280 | -18.37511 | 38538 ft | 498 kts | 276° |
| 2026-05-09 14:09 | 54.01849 | -18.84336 | 38541 ft | 499 kts | 276° |
| 2026-05-09 14:10 | 54.00847 | -19.55476 | 38572 ft | 504 kts | 276° |
| 2026-05-09 14:11 | 54.00170 | -20.02949 | 38576 ft | 501 kts | 281° |
| 2026-05-09 14:11 | 54.02001 | -20.50524 | 38584 ft | 502 kts | 282° |
| 2026-05-09 14:12 | 54.03669 | -20.97668 | 38590 ft | 503 kts | 282° |
| 2026-05-09 14:12 | 54.05169 | -21.45369 | 38604 ft | 505 kts | 281° |
| 2026-05-09 14:13 | 54.06486 | -21.93309 | 38617 ft | 507 kts | 281° |
| 2026-05-09 14:15 | 54.09846 | -23.85826 | 38631 ft | 511 kts | 280° |
| 2026-05-09 14:15 | 54.10208 | -24.34305 | 38636 ft | 510 kts | 279° |
| 2026-05-09 14:16 | 54.10374 | -24.82551 | 38645 ft | 508 kts | 279° |
| 2026-05-09 14:16 | 54.10347 | -25.30802 | 38654 ft | 509 kts | 279° |
| 2026-05-09 14:17 | 54.10127 | -25.78870 | 38656 ft | 505 kts | 278° |
| 2026-05-09 14:17 | 54.09725 | -26.26433 | 38643 ft | 505 kts | 277° |
| 2026-05-09 14:18 | 54.09126 | -26.74407 | 38639 ft | 506 kts | 277° |
| 2026-05-09 14:18 | 54.08339 | -27.22227 | 38685 ft | 504 kts | 276° |
| 2026-05-09 14:19 | 54.07360 | -27.70169 | 38664 ft | 506 kts | 275° |
| 2026-05-09 14:19 | 54.06199 | -28.17664 | 38667 ft | 504 kts | 275° |
| 2026-05-09 14:20 | 54.04848 | -28.65385 | 38667 ft | 504 kts | 274° |
| 2026-05-09 14:20 | 54.03303 | -29.13136 | 38667 ft | 505 kts | 274° |
| 2026-05-09 14:21 | 54.00669 | -29.83768 | 38663 ft | 498 kts | 272° |
| 2026-05-09 14:21 | 53.98235 | -30.30834 | 38642 ft | 500 kts | 270° |
| 2026-05-09 14:22 | 53.95356 | -30.77656 | 38664 ft | 497 kts | 269° |
| 2026-05-09 14:22 | 53.92313 | -31.24387 | 38654 ft | 497 kts | 268° |
| 2026-05-09 14:23 | 53.89117 | -31.70660 | 38654 ft | 497 kts | 268° |
| 2026-05-09 14:23 | 53.85735 | -32.16934 | 38646 ft | 492 kts | 266° |
| 2026-05-09 14:24 | 53.82201 | -32.62843 | 38636 ft | 491 kts | 266° |
| 2026-05-09 14:24 | 53.78497 | -33.08593 | 38629 ft | 491 kts | 265° |
| 2026-05-09 14:25 | 53.74638 | -33.54046 | 38620 ft | 486 kts | 264° |
| 2026-05-09 14:25 | 53.70630 | -33.99173 | 38610 ft | 486 kts | 264° |
| 2026-05-09 14:26 | 53.66480 | -34.43915 | 38597 ft | 484 kts | 263° |
| 2026-05-09 14:26 | 53.62153 | -34.88683 | 38581 ft | 483 kts | 263° |
| 2026-05-09 14:27 | 53.57658 | -35.33364 | 38566 ft | 483 kts | 262° |
| 2026-05-09 14:27 | 53.53037 | -35.77565 | 38559 ft | 476 kts | 262° |
| 2026-05-09 14:28 | 53.48316 | -36.21122 | 38548 ft | 473 kts | 261° |
| 2026-05-09 14:28 | 53.43439 | -36.64542 | 38529 ft | 473 kts | 260° |
| 2026-05-09 14:29 | 53.38401 | -37.07919 | 38512 ft | 472 kts | 258° |
| 2026-05-09 14:29 | 53.33264 | -37.50679 | 38498 ft | 472 kts | 258° |
| 2026-05-09 14:30 | 53.27980 | -37.93468 | 38471 ft | 470 kts | 258° |
| 2026-05-09 14:30 | 53.22544 | -38.36073 | 38450 ft | 463 kts | 255° |
| 2026-05-09 14:31 | 53.16961 | -38.78122 | 38426 ft | 463 kts | 255° |
| 2026-05-09 14:31 | 53.11324 | -39.19720 | 38419 ft | 464 kts | 255° |
| 2026-05-09 14:32 | 53.05493 | -39.61529 | 38394 ft | 462 kts | 255° |
| 2026-05-09 14:32 | 52.99542 | -40.03082 | 38371 ft | 461 kts | 254° |
| 2026-05-09 14:33 | 52.93248 | -40.44255 | 38336 ft | 459 kts | 253° |
| 2026-05-09 14:33 | 52.86885 | -40.84984 | 38309 ft | 457 kts | 252° |
| 2026-05-09 14:34 | 52.80387 | -41.25551 | 38282 ft | 456 kts | 252° |
| 2026-05-09 14:34 | 52.73755 | -41.65979 | 38257 ft | 455 kts | 251° |
| 2026-05-09 14:35 | 52.67005 | -42.06176 | 38229 ft | 454 kts | 250° |
| 2026-05-09 14:35 | 52.60115 | -42.46260 | 38203 ft | 456 kts | 250° |
| 2026-05-09 14:36 | 52.53054 | -42.86429 | 38170 ft | 456 kts | 249° |
| 2026-05-09 14:36 | 52.45920 | -43.26126 | 38142 ft | 455 kts | 249° |
| 2026-05-09 14:37 | 52.38670 | -43.65593 | 38112 ft | 452 kts | 248° |
| 2026-05-09 14:37 | 52.31309 | -44.04838 | 38097 ft | 449 kts | 247° |
| 2026-05-09 14:38 | 52.23887 | -44.43590 | 38071 ft | 448 kts | 246° |
| 2026-05-09 14:38 | 52.16302 | -44.82388 | 38034 ft | 448 kts | 245° |
| 2026-05-09 14:39 | 52.08610 | -45.20964 | 38011 ft | 448 kts | 245° |
| 2026-05-09 14:39 | 52.00769 | -45.59526 | 37999 ft | 449 kts | 244° |
| 2026-05-09 14:40 | 51.92805 | -45.97929 | 37964 ft | 450 kts | 244° |
| 2026-05-09 14:40 | 51.84747 | -46.36068 | 37932 ft | 447 kts | 243° |
| 2026-05-09 14:41 | 51.76585 | -46.73965 | 37923 ft | 445 kts | 243° |
| 2026-05-09 14:41 | 51.68424 | -47.11176 | 37879 ft | 439 kts | 243° |
| 2026-05-09 14:42 | 51.60256 | -47.47776 | 37877 ft | 431 kts | 242° |
| 2026-05-09 14:42 | 51.52068 | -47.83817 | 37877 ft | 430 kts | 241° |
| 2026-05-09 14:43 | 51.43756 | -48.19797 | 37849 ft | 430 kts | 240° |
| 2026-05-09 14:43 | 51.36763 | -48.49601 | 37830 ft | 430 kts | 240° |
| 2026-05-09 14:44 | 51.28255 | -48.85325 | 37807 ft | 429 kts | 239° |
| 2026-05-09 14:44 | 51.19627 | -49.20956 | 37812 ft | 430 kts | 239° |
| 2026-05-09 14:45 | 51.10890 | -49.56466 | 37806 ft | 430 kts | 238° |
| 2026-05-09 14:45 | 51.02041 | -49.91854 | 37796 ft | 430 kts | 238° |
| 2026-05-09 14:46 | 50.93432 | -50.27234 | 37793 ft | 435 kts | 238° |
| 2026-05-09 14:46 | 50.84674 | -50.63158 | 37791 ft | 440 kts | 238° |
| 2026-05-09 14:47 | 50.75733 | -50.99241 | 37803 ft | 443 kts | 238° |
| 2026-05-09 14:47 | 50.66598 | -51.35515 | 37852 ft | 446 kts | 239° |
| 2026-05-09 14:48 | 50.57383 | -51.71525 | 37820 ft | 442 kts | 238° |
| 2026-05-09 14:48 | 50.48180 | -52.07320 | 37832 ft | 443 kts | 240° |
| 2026-05-09 14:49 | 50.39716 | -52.43789 | 37851 ft | 450 kts | 240° |
| 2026-05-09 14:49 | 50.30931 | -52.80545 | 37874 ft | 452 kts | 241° |
| 2026-05-09 14:50 | 50.21947 | -53.17492 | 37896 ft | 457 kts | 241° |
| 2026-05-09 14:50 | 50.12753 | -53.54701 | 37903 ft | 459 kts | 241° |
| 2026-05-09 14:51 | 50.03445 | -53.91739 | 37927 ft | 459 kts | 240° |
| 2026-05-09 14:51 | 49.94032 | -54.28575 | 37938 ft | 462 kts | 241° |
| 2026-05-09 14:52 | 49.84423 | -54.65589 | 37939 ft | 463 kts | 241° |
| 2026-05-09 14:52 | 49.74688 | -55.02471 | 37943 ft | 464 kts | 242° |
| 2026-05-09 14:53 | 49.64793 | -55.39374 | 37944 ft | 464 kts | 242° |
| 2026-05-09 14:53 | 49.54798 | -55.76061 | 37967 ft | 465 kts | 242° |
| 2026-05-09 14:54 | 49.44612 | -56.12872 | 37939 ft | 466 kts | 242° |
| 2026-05-09 14:54 | 49.34333 | -56.49448 | 37934 ft | 466 kts | 242° |
| 2026-05-09 14:55 | 49.24021 | -56.85579 | 37945 ft | 465 kts | 242° |
| 2026-05-09 14:55 | 49.13523 | -57.21817 | 37942 ft | 465 kts | 242° |
| 2026-05-09 14:56 | 49.02919 | -57.57873 | 37944 ft | 467 kts | 242° |
| 2026-05-09 14:56 | 48.92165 | -57.93905 | 37969 ft | 467 kts | 242° |
| 2026-05-09 14:57 | 48.81314 | -58.29734 | 38000 ft | 467 kts | 242° |
| 2026-05-09 14:57 | 48.70310 | -58.65545 | 38006 ft | 468 kts | 242° |
| 2026-05-09 14:58 | 48.59271 | -59.00955 | 38018 ft | 469 kts | 242° |
| 2026-05-09 14:58 | 48.48014 | -59.36558 | 38019 ft | 469 kts | 242° |
| 2026-05-09 14:59 | 48.36672 | -59.71926 | 38018 ft | 469 kts | 242° |
| 2026-05-09 14:59 | 48.25206 | -60.07186 | 38026 ft | 469 kts | 242° |
| 2026-05-09 15:00 | 48.13757 | -60.41913 | 38033 ft | 467 kts | 242° |
| 2026-05-09 15:00 | 48.02172 | -60.76578 | 38031 ft | 464 kts | 242° |
| 2026-05-09 15:01 | 47.84636 | -61.28180 | 38025 ft | 464 kts | 242° |
| 2026-05-09 15:02 | 47.72914 | -61.62108 | 38019 ft | 463 kts | 242° |
| 2026-05-09 15:02 | 47.61038 | -61.96039 | 38040 ft | 462 kts | 242° |
| 2026-05-09 15:03 | 47.49101 | -62.29706 | 38040 ft | 462 kts | 242° |
| 2026-05-09 15:03 | 47.37067 | -62.63218 | 38042 ft | 461 kts | 242° |
| 2026-05-09 15:04 | 47.24954 | -62.96527 | 38043 ft | 460 kts | 242° |
| 2026-05-09 15:06 | 46.75682 | -64.27895 | 38031 ft | 459 kts | 241° |
| 2026-05-09 15:06 | 46.63148 | -64.60318 | 38032 ft | 458 kts | 241° |
| 2026-05-09 15:07 | 46.50634 | -64.92306 | 38024 ft | 457 kts | 241° |
| 2026-05-09 15:07 | 46.37971 | -65.24298 | 38021 ft | 456 kts | 241° |
| 2026-05-09 15:08 | 46.25281 | -65.55987 | 38027 ft | 454 kts | 241° |
| 2026-05-09 15:08 | 46.06212 | -66.02933 | 38030 ft | 452 kts | 240° |
| 2026-05-09 15:10 | 45.74584 | -66.79084 | 38034 ft | 449 kts | 240° |
| 2026-05-09 15:11 | 45.71357 | -66.86739 | 38033 ft | 449 kts | 240° |
| 2026-05-09 15:11 | 45.68142 | -66.94343 | 38033 ft | 449 kts | 240° |
| 2026-05-09 15:12 | 45.64904 | -67.01981 | 38022 ft | 449 kts | 240° |
| 2026-05-09 15:12 | 45.61655 | -67.09625 | 38036 ft | 449 kts | 240° |
| 2026-05-09 15:13 | 45.55204 | -67.24738 | 38048 ft | 448 kts | 240° |
| 2026-05-09 15:13 | 45.48700 | -67.39896 | 38041 ft | 447 kts | 240° |
| 2026-05-09 15:14 | 45.42183 | -67.55001 | 38045 ft | 446 kts | 240° |
| 2026-05-09 15:14 | 45.36996 | -67.66966 | 38053 ft | 445 kts | 240° |
| 2026-05-09 15:15 | 45.34230 | -67.73132 | 38052 ft | 446 kts | 235° |
| 2026-05-09 15:15 | 45.29512 | -67.80914 | 38054 ft | 447 kts | 231° |
| 2026-05-09 15:16 | 45.25365 | -67.87479 | 38077 ft | 447 kts | 231° |
| 2026-05-09 15:16 | 45.21198 | -67.94038 | 38056 ft | 447 kts | 231° |
| 2026-05-09 15:17 | 45.17029 | -68.00579 | 38055 ft | 446 kts | 231° |
| 2026-05-09 15:17 | 45.12872 | -68.07084 | 38058 ft | 445 kts | 231° |
| 2026-05-09 15:18 | 45.08735 | -68.13545 | 38059 ft | 445 kts | 231° |
| 2026-05-09 15:18 | 45.04564 | -68.20041 | 38054 ft | 445 kts | 231° |
| 2026-05-09 15:19 | 45.00400 | -68.26513 | 38067 ft | 444 kts | 231° |
| 2026-05-09 15:19 | 44.96247 | -68.32951 | 38066 ft | 443 kts | 231° |
| 2026-05-09 15:20 | 44.90035 | -68.42555 | 38067 ft | 443 kts | 231° |
| 2026-05-09 15:21 | 44.85877 | -68.48963 | 38052 ft | 441 kts | 231° |
| 2026-05-09 15:21 | 44.81730 | -68.55341 | 38048 ft | 440 kts | 231° |
| 2026-05-09 15:22 | 44.77585 | -68.61701 | 38048 ft | 440 kts | 231° |
| 2026-05-09 15:22 | 44.73468 | -68.68004 | 38046 ft | 440 kts | 231° |
| 2026-05-09 15:23 | 44.69309 | -68.74357 | 38049 ft | 440 kts | 231° |
| 2026-05-09 15:23 | 44.65182 | -68.80646 | 38046 ft | 440 kts | 231° |
| 2026-05-09 15:24 | 44.61031 | -68.86958 | 38049 ft | 440 kts | 231° |
| 2026-05-09 15:24 | 44.56872 | -68.93266 | 38036 ft | 439 kts | 231° |
| 2026-05-09 15:25 | 44.52732 | -68.99532 | 38045 ft | 437 kts | 231° |
| 2026-05-09 15:25 | 44.48596 | -69.05778 | 38055 ft | 437 kts | 231° |
| 2026-05-09 15:26 | 44.42420 | -69.15081 | 38029 ft | 437 kts | 231° |
| 2026-05-09 15:26 | 44.38291 | -69.21281 | 38049 ft | 434 kts | 231° |
| 2026-05-09 15:27 | 44.34174 | -69.27450 | 38052 ft | 433 kts | 231° |
| 2026-05-09 15:27 | 44.30059 | -69.33604 | 38053 ft | 433 kts | 231° |
| 2026-05-09 15:28 | 44.25938 | -69.39753 | 38048 ft | 433 kts | 231° |
| 2026-05-09 15:28 | 44.21841 | -69.45852 | 38052 ft | 432 kts | 231° |
| 2026-05-09 15:29 | 44.17722 | -69.51970 | 38058 ft | 432 kts | 231° |
| 2026-05-09 15:29 | 44.13604 | -69.58073 | 38059 ft | 431 kts | 231° |
| 2026-05-09 15:30 | 44.09524 | -69.64106 | 38055 ft | 430 kts | 231° |
| 2026-05-09 15:30 | 44.05423 | -69.70160 | 38063 ft | 430 kts | 231° |
| 2026-05-09 15:31 | 44.01312 | -69.76215 | 38063 ft | 430 kts | 231° |
| 2026-05-09 15:31 | 43.97898 | -69.81232 | 38062 ft | 430 kts | 231° |
| 2026-05-09 15:32 | 43.92613 | -69.88981 | 38071 ft | 430 kts | 231° |
| 2026-05-09 15:32 | 43.85769 | -69.98986 | 38074 ft | 430 kts | 231° |
| 2026-05-09 15:33 | 43.75153 | -70.14433 | 38046 ft | 429 kts | 231° |
| 2026-05-09 15:33 | 43.58650 | -70.38278 | 38041 ft | 428 kts | 231° |
| 2026-05-09 15:34 | 43.41615 | -70.61279 | 38054 ft | 438 kts | 217° |
| 2026-05-09 15:34 | 43.30040 | -70.67536 | 38053 ft | 449 kts | 207° |
| 2026-05-09 15:34 | 43.18337 | -70.73254 | 38046 ft | 447 kts | 207° |
| 2026-05-09 15:35 | 42.94879 | -70.84693 | 38042 ft | 446 kts | 207° |
| 2026-05-09 15:35 | 42.71610 | -70.95947 | 38035 ft | 439 kts | 207° |
| 2026-05-09 15:36 | 42.60152 | -71.01460 | 36947 ft | 443 kts | 207° |
| 2026-05-09 15:36 | 42.48524 | -71.07030 | 35918 ft | 444 kts | 208° |
| 2026-05-09 15:36 | 42.36881 | -71.12582 | 34895 ft | 440 kts | 209° |
| 2026-05-09 15:36 | 42.25409 | -71.18033 | 33870 ft | 434 kts | 209° |
| 2026-05-09 15:37 | 42.14029 | -71.23422 | 32787 ft | 428 kts | 208° |
| 2026-05-09 15:37 | 42.02929 | -71.28657 | 31694 ft | 418 kts | 208° |
| 2026-05-09 15:37 | 41.92050 | -71.33769 | 30688 ft | 410 kts | 208° |
| 2026-05-09 15:37 | 41.81351 | -71.38780 | 29571 ft | 402 kts | 208° |
| 2026-05-09 15:38 | 41.71251 | -71.44358 | 28448 ft | 378 kts | 223° |
| 2026-05-09 15:38 | 41.63257 | -71.53180 | 27329 ft | 368 kts | 226° |
| 2026-05-09 15:38 | 41.55770 | -71.61533 | 26350 ft | 361 kts | 226° |
| 2026-05-09 15:38 | 41.53866 | -71.63651 | 26113 ft | 359 kts | 225° |
| 2026-05-09 15:39 | 41.51945 | -71.65788 | 25834 ft | 359 kts | 225° |
| 2026-05-09 15:39 | 41.50025 | -71.67920 | 25598 ft | 359 kts | 225° |
| 2026-05-09 15:39 | 41.48108 | -71.70045 | 25361 ft | 358 kts | 225° |
| 2026-05-09 15:39 | 41.46193 | -71.72157 | 25122 ft | 356 kts | 225° |
| 2026-05-09 15:40 | 41.44283 | -71.74266 | 24875 ft | 355 kts | 225° |
| 2026-05-09 15:40 | 41.42377 | -71.76370 | 24631 ft | 354 kts | 225° |
| 2026-05-09 15:40 | 41.40486 | -71.78457 | 24401 ft | 352 kts | 225° |
| 2026-05-09 15:40 | 41.38600 | -71.80539 | 24162 ft | 351 kts | 225° |
| 2026-05-09 15:41 | 41.36722 | -71.82611 | 24027 ft | 350 kts | 225° |
| 2026-05-09 15:41 | 41.34851 | -71.84676 | 23807 ft | 349 kts | 225° |
| 2026-05-09 15:41 | 41.32985 | -71.86734 | 23658 ft | 348 kts | 225° |
| 2026-05-09 15:41 | 41.31144 | -71.88761 | 23298 ft | 347 kts | 225° |
| 2026-05-09 15:42 | 41.29287 | -71.90805 | 22879 ft | 345 kts | 224° |
| 2026-05-09 15:42 | 41.27443 | -71.92839 | 22478 ft | 343 kts | 224° |
| 2026-05-09 15:42 | 41.25615 | -71.94851 | 22078 ft | 341 kts | 224° |
| 2026-05-09 15:42 | 41.23794 | -71.96860 | 21679 ft | 339 kts | 224° |
| 2026-05-09 15:43 | 41.21986 | -71.98853 | 21296 ft | 337 kts | 224° |
| 2026-05-09 15:43 | 41.20175 | -72.00844 | 20902 ft | 336 kts | 224° |
| 2026-05-09 15:43 | 41.18376 | -72.02819 | 20522 ft | 335 kts | 224° |
| 2026-05-09 15:43 | 41.16583 | -72.04784 | 20158 ft | 334 kts | 224° |
| 2026-05-09 15:44 | 41.14815 | -72.06719 | 19790 ft | 333 kts | 224° |
| 2026-05-09 15:44 | 41.13029 | -72.08672 | 19421 ft | 331 kts | 224° |
| 2026-05-09 15:44 | 41.11292 | -72.10662 | 19061 ft | 328 kts | 229° |
| 2026-05-09 15:44 | 41.09895 | -72.13000 | 18706 ft | 321 kts | 242° |
| 2026-05-09 15:45 | 41.08996 | -72.15688 | 18335 ft | 317 kts | 251° |
| 2026-05-09 15:45 | 41.08302 | -72.18460 | 17938 ft | 316 kts | 252° |
| 2026-05-09 15:45 | 41.07632 | -72.21235 | 17539 ft | 315 kts | 252° |
| 2026-05-09 15:45 | 41.06957 | -72.24006 | 17148 ft | 314 kts | 252° |
| 2026-05-09 15:46 | 41.06291 | -72.26723 | 16770 ft | 313 kts | 251° |
| 2026-05-09 15:46 | 41.05616 | -72.29461 | 16383 ft | 312 kts | 251° |
| 2026-05-09 15:46 | 41.04938 | -72.32195 | 16004 ft | 311 kts | 251° |
| 2026-05-09 15:46 | 41.04262 | -72.34916 | 15621 ft | 310 kts | 251° |
| 2026-05-09 15:47 | 41.03588 | -72.37624 | 15236 ft | 309 kts | 250° |
| 2026-05-09 15:47 | 41.02914 | -72.40327 | 14875 ft | 308 kts | 250° |
| 2026-05-09 15:47 | 41.02241 | -72.43026 | 14515 ft | 308 kts | 250° |
| 2026-05-09 15:47 | 41.01569 | -72.45714 | 14145 ft | 307 kts | 250° |
| 2026-05-09 15:48 | 41.00899 | -72.48395 | 13790 ft | 306 kts | 249° |
| 2026-05-09 15:48 | 41.00238 | -72.51032 | 13389 ft | 305 kts | 249° |
| 2026-05-09 15:48 | 40.99571 | -72.53693 | 12966 ft | 303 kts | 249° |
| 2026-05-09 15:48 | 40.98908 | -72.56333 | 12578 ft | 302 kts | 249° |
| 2026-05-09 15:49 | 40.98246 | -72.58966 | 12203 ft | 300 kts | 249° |
| 2026-05-09 15:49 | 40.97589 | -72.61576 | 12060 ft | 299 kts | 248° |
| 2026-05-09 15:49 | 40.96934 | -72.64177 | 12029 ft | 297 kts | 248° |
| 2026-05-09 15:49 | 40.96280 | -72.66771 | 12032 ft | 297 kts | 248° |
| 2026-05-09 15:50 | 40.95626 | -72.69361 | 12039 ft | 297 kts | 248° |
| 2026-05-09 15:50 | 40.94969 | -72.71958 | 12033 ft | 296 kts | 248° |
| 2026-05-09 15:50 | 40.94314 | -72.74548 | 12039 ft | 296 kts | 248° |
| 2026-05-09 15:50 | 40.93660 | -72.77131 | 11944 ft | 297 kts | 248° |
| 2026-05-09 15:51 | 40.93006 | -72.79716 | 11614 ft | 292 kts | 248° |
| 2026-05-09 15:51 | 40.92384 | -72.82217 | 11229 ft | 278 kts | 249° |
| 2026-05-09 15:51 | 40.92088 | -72.84706 | 10999 ft | 267 kts | 257° |
| 2026-05-09 15:51 | 40.91510 | -72.86957 | 11033 ft | 254 kts | 236° |
| 2026-05-09 15:52 | 40.88824 | -72.89738 | 10885 ft | 252 kts | 199° |
| 2026-05-09 15:52 | 40.87067 | -72.90006 | 10842 ft | 259 kts | 181° |
| 2026-05-09 15:52 | 40.85285 | -72.89475 | 10797 ft | 268 kts | 165° |
| 2026-05-09 15:53 | 40.83649 | -72.88197 | 10781 ft | 279 kts | 148° |
| 2026-05-09 15:53 | 40.82221 | -72.86429 | 10735 ft | 280 kts | 148° |
| 2026-05-09 15:53 | 40.80556 | -72.85286 | 10415 ft | 262 kts | 173° |
| 2026-05-09 15:53 | 40.78825 | -72.85287 | 10046 ft | 249 kts | 198° |
| 2026-05-09 15:54 | 40.77332 | -72.86402 | 9650 ft | 246 kts | 224° |
| 2026-05-09 15:54 | 40.76322 | -72.88186 | 9265 ft | 247 kts | 235° |
| 2026-05-09 15:54 | 40.75448 | -72.90144 | 8877 ft | 247 kts | 237° |
| 2026-05-09 15:54 | 40.74597 | -72.92115 | 8479 ft | 247 kts | 237° |
| 2026-05-09 15:55 | 40.73878 | -72.94171 | 8084 ft | 251 kts | 252° |
| 2026-05-09 15:55 | 40.73857 | -72.96509 | 7726 ft | 260 kts | 272° |
| 2026-05-09 15:55 | 40.74238 | -72.98860 | 7341 ft | 263 kts | 276° |
| 2026-05-09 15:55 | 40.74677 | -73.01196 | 6972 ft | 262 kts | 277° |
| 2026-05-09 15:56 | 40.75117 | -73.03521 | 6605 ft | 261 kts | 277° |
| 2026-05-09 15:56 | 40.75552 | -73.05842 | 6227 ft | 258 kts | 277° |
| 2026-05-09 15:56 | 40.75970 | -73.08072 | 5832 ft | 243 kts | 277° |
| 2026-05-09 15:56 | 40.76371 | -73.10189 | 5431 ft | 234 kts | 277° |
| 2026-05-09 15:57 | 40.76759 | -73.12233 | 5063 ft | 231 kts | 277° |
| 2026-05-09 15:57 | 40.77148 | -73.14279 | 4680 ft | 229 kts | 277° |
| 2026-05-09 15:57 | 40.77533 | -73.16321 | 4294 ft | 228 kts | 277° |
| 2026-05-09 15:57 | 40.77907 | -73.18347 | 4027 ft | 226 kts | 277° |
| 2026-05-09 15:58 | 40.78269 | -73.20314 | 3991 ft | 211 kts | 277° |
| 2026-05-09 15:58 | 40.78622 | -73.22165 | 4002 ft | 205 kts | 277° |
| 2026-05-09 15:58 | 40.78972 | -73.23970 | 3995 ft | 206 kts | 277° |
| 2026-05-09 15:58 | 40.79332 | -73.25834 | 3989 ft | 213 kts | 277° |
| 2026-05-09 15:59 | 40.79697 | -73.27832 | 3984 ft | 236 kts | 277° |
| 2026-05-09 15:59 | 40.80074 | -73.29997 | 3992 ft | 244 kts | 277° |
| 2026-05-09 15:59 | 40.80455 | -73.32184 | 3995 ft | 245 kts | 277° |
| 2026-05-09 15:59 | 40.80840 | -73.34384 | 3992 ft | 246 kts | 277° |
| 2026-05-09 16:00 | 40.81225 | -73.36586 | 3999 ft | 246 kts | 277° |
| 2026-05-09 16:00 | 40.81355 | -73.37329 | 3995 ft | 245 kts | 277° |
| 2026-05-09 16:00 | 40.81697 | -73.41001 | 3784 ft | 241 kts | 268° |
| 2026-05-09 16:00 | 40.81758 | -73.43207 | 3523 ft | 240 kts | 267° |
| 2026-05-09 16:01 | 40.81805 | -73.45399 | 3283 ft | 238 kts | 267° |
| 2026-05-09 16:01 | 40.81833 | -73.47579 | 3020 ft | 236 kts | 265° |
| 2026-05-09 16:01 | 40.81658 | -73.49725 | 2772 ft | 234 kts | 258° |
| 2026-05-09 16:01 | 40.81390 | -73.51833 | 2518 ft | 232 kts | 257° |
| 2026-05-09 16:02 | 40.81103 | -73.53923 | 2260 ft | 231 kts | 257° |
| 2026-05-09 16:02 | 40.80369 | -73.58050 | 1959 ft | 235 kts | 250° |
| 2026-05-09 16:02 | 40.79782 | -73.59989 | 1974 ft | 219 kts | 243° |
| 2026-05-09 16:03 | 40.79070 | -73.61721 | 1973 ft | 211 kts | 237° |
| 2026-05-09 16:03 | 40.78260 | -73.63348 | 1960 ft | 213 kts | 236° |
| 2026-05-09 16:03 | 40.77398 | -73.64937 | 1966 ft | 213 kts | 227° |
| 2026-05-09 16:03 | 40.76290 | -73.66242 | 1996 ft | 215 kts | 219° |
| 2026-05-09 16:04 | 40.75088 | -73.67327 | 1989 ft | 199 kts | 213° |
| 2026-05-09 16:04 | 40.73974 | -73.68161 | 1989 ft | 169 kts | 209° |
| 2026-05-09 16:04 | 40.73028 | -73.68808 | 1961 ft | 142 kts | 214° |
| 2026-05-09 16:04 | 40.72239 | -73.69465 | 1808 ft | 128 kts | 213° |
| 2026-05-09 16:05 | 40.71476 | -73.70057 | 1647 ft | 127 kts | 213° |
| 2026-05-09 16:05 | 40.70714 | -73.70646 | 1459 ft | 127 kts | 212° |
| 2026-05-09 16:05 | 40.69948 | -73.71240 | 1286 ft | 128 kts | 212° |
| 2026-05-09 16:05 | 40.69177 | -73.71843 | 1105 ft | 129 kts | 212° |
| 2026-05-09 16:06 | 40.68406 | -73.72446 | 927 ft | 130 kts | 211° |
| 2026-05-09 16:06 | 40.67639 | -73.73046 | 735 ft | 130 kts | 210° |
| 2026-05-09 16:06 | 40.66865 | -73.73674 | 485 ft | 131 kts | 211° |
| 2026-05-09 16:06 | 40.66091 | -73.74289 | 396 ft | 132 kts | 207° |
| 2026-05-09 16:07 | 40.65286 | -73.74887 | 243 ft | 133 kts | 207° |
| 2026-05-09 16:07 | 40.64503 | -73.75506 | 88 ft | 131 kts | 209° |
| 2026-05-09 16:07 | 40.63735 | -73.76101 | 27 ft | 118 kts | 211° |
| 2026-05-09 16:07 | 40.63141 | -73.76573 | 31 ft | 74 kts | 211° |
| 2026-05-09 16:08 | 40.62792 | -73.76841 | 28 ft | 35 kts | 210° |
| 2026-05-09 16:08 | 40.62621 | -73.76973 | 30 ft | 13 kts | 217° |
| 2026-05-09 16:08 | 40.62576 | -73.77077 | 31 ft | 14 kts | 266° |
| 2026-05-09 16:08 | 40.62578 | -73.77120 | 30 ft | 0 kts | 275° |
| 2026-05-09 16:09 | 40.62580 | -73.77144 | 30 ft | 5 kts | 277° |
| 2026-05-09 16:09 | 40.62598 | -73.77203 | 31 ft | 9 kts | 306° |
| 2026-05-09 16:09 | 40.62659 | -73.77246 | 31 ft | 12 kts | 343° |
| 2026-05-09 16:10 | 40.62749 | -73.77239 | 30 ft | 16 kts | 28° |
| 2026-05-09 16:10 | 40.62854 | -73.77159 | 30 ft | 17 kts | 31° |
| 2026-05-09 16:10 | 40.62949 | -73.77102 | 30 ft | 15 kts | 0° |
| 2026-05-09 16:10 | 40.63028 | -73.77190 | 32 ft | 16 kts | 300° |
| 2026-05-09 16:11 | 40.63090 | -73.77326 | 33 ft | 19 kts | 301° |
| 2026-05-09 16:11 | 40.63162 | -73.77483 | 36 ft | 19 kts | 301° |
| 2026-05-09 16:11 | 40.63232 | -73.77636 | 34 ft | 21 kts | 301° |
| 2026-05-09 16:11 | 40.63279 | -73.77741 | 33 ft | 13 kts | 301° |
| 2026-05-09 16:12 | 40.63308 | -73.77807 | 33 ft | 0 kts | 300° |
| 2026-05-09 16:12 | 40.63319 | -73.77832 | 33 ft | 7 kts | 300° |
| 2026-05-09 16:12 | 40.63351 | -73.77905 | 31 ft | 8 kts | 300° |
| 2026-05-09 16:12 | 40.63358 | -73.77921 | 30 ft | 0 kts | 299° |
| 2026-05-09 16:13 | 40.63364 | -73.77933 | 30 ft | 3 kts | 304° |
| 2026-05-09 16:13 | 40.63367 | -73.77937 | 30 ft | 0 kts | 314° |
| 2026-05-09 16:13 | 40.63372 | -73.77950 | 30 ft | 5 kts | 296° |
| 2026-05-09 16:13 | 40.63401 | -73.78020 | 29 ft | 12 kts | 299° |
| 2026-05-09 16:14 | 40.63451 | -73.78134 | 31 ft | 16 kts | 301° |
| 2026-05-09 16:14 | 40.63517 | -73.78278 | 31 ft | 17 kts | 300° |
| 2026-05-09 16:14 | 40.63581 | -73.78421 | 34 ft | 9 kts | 301° |
| 2026-05-09 16:14 | 40.63608 | -73.78480 | 35 ft | 10 kts | 300° |
| 2026-05-09 16:15 | 40.63655 | -73.78582 | 34 ft | 16 kts | 301° |
| 2026-05-09 16:15 | 40.63720 | -73.78728 | 35 ft | 20 kts | 300° |
| 2026-05-09 16:15 | 40.63801 | -73.78909 | 31 ft | 26 kts | 301° |
| 2026-05-09 16:15 | 40.63860 | -73.79038 | 29 ft | 1 kts | 301° |
| 2026-05-09 16:16 | 40.63903 | -73.79130 | 28 ft | 15 kts | 302° |
| 2026-05-09 16:16 | 40.63952 | -73.79240 | 32 ft | 3 kts | 300° |
| 2026-05-09 16:16 | 40.63986 | -73.79272 | 27 ft | 8 kts | 3° |
| 2026-05-09 16:16 | 40.64027 | -73.79218 | 30 ft | 8 kts | 63° |
| 2026-05-09 16:17 | 40.64049 | -73.79175 | 30 ft | 1 kts | 48° |
| 2026-05-09 16:17 | 40.64058 | -73.79162 | 30 ft | 2 kts | 46° |
| 2026-05-09 16:17 | 40.64060 | -73.79159 | 30 ft | 1 kts | 47° |
| 2026-05-09 16:17 | 40.64071 | -73.79143 | 30 ft | 0 kts | 47° |
| 2026-05-09 16:18 | 40.64074 | -73.79141 | 30 ft | 1 kts | 33° |
| 2026-05-09 16:18 | 40.64080 | -73.79142 | 30 ft | 1 kts | 3° |
| 2026-05-09 16:18 | 40.64085 | -73.79147 | 30 ft | 1 kts | 332° |
| 2026-05-09 16:18 | 40.64087 | -73.79155 | 30 ft | 1 kts | 300° |
| 2026-05-09 16:19 | 40.64091 | -73.79179 | 30 ft | 5 kts | 283° |
| 2026-05-09 16:19 | 40.64119 | -73.79216 | 30 ft | 2 kts | 327° |